Time;durP1;ratioP1;P1;durP2;ratioP2;P2;SDS_P1;SDS_P2;PMS_P1;PMS_P2;Temp;Humidity;BMP_temperature;BMP_pressure;BME280_temperature;BME280_humidity;BME280_pressure;Samples;Min_cycle;Max_cycle;Signal;HPM_P1;HPM_P2
2021/08/17 00:00:09;;;;;;;41.35;26.70;;;23.50;62.00;;;;;;5036502;28;20295;-35
2021/08/17 00:02:35;;;;;;;36.08;25.73;;;23.50;62.00;;;;;;5036114;28;20037;-35
2021/08/17 00:05:02;;;;;;;34.28;25.13;;;23.50;62.10;;;;;;5036290;28;20030;-35
2021/08/17 00:07:28;;;;;;;35.08;26.35;;;23.50;62.20;;;;;;5035973;28;20167;-35
2021/08/17 00:09:54;;;;;;;34.63;24.27;;;23.40;62.10;;;;;;5036187;28;20072;-35
2021/08/17 00:12:21;;;;;;;35.38;23.95;;;23.50;62.20;;;;;;5035901;28;20031;-36
2021/08/17 00:14:47;;;;;;;35.03;25.27;;;23.40;62.10;;;;;;5036300;28;20088;-36
2021/08/17 00:17:13;;;;;;;35.40;23.40;;;23.40;62.20;;;;;;5036561;28;20333;-36
2021/08/17 00:19:40;;;;;;;29.38;20.75;;;23.40;62.20;;;;;;5036261;28;20060;-35
2021/08/17 00:22:07;;;;;;;36.97;22.65;;;23.40;62.30;;;;;;5036451;28;20373;-35
2021/08/17 00:24:34;;;;;;;30.00;23.63;;;23.40;62.10;;;;;;5036265;28;20112;-35
2021/08/17 00:27:00;;;;;;;42.53;25.13;;;23.40;62.00;;;;;;5035178;28;20029;-35
2021/08/17 00:29:26;;;;;;;29.02;22.08;;;23.40;62.00;;;;;;5035935;28;20366;-35
2021/08/17 00:31:51;;;;;;;36.80;25.40;;;23.30;61.90;;;;;;5036011;28;20116;-35
2021/08/17 00:34:17;;;;;;;33.20;27.10;;;23.30;62.40;;;;;;5036102;28;20409;-35
2021/08/17 00:36:43;;;;;;;34.17;22.20;;;23.30;61.80;;;;;;5036008;28;20056;-35
2021/08/17 00:39:09;;;;;;;30.33;21.90;;;23.30;62.40;;;;;;5034762;28;20100;-35
2021/08/17 00:41:38;;;;;;;34.30;24.73;;;23.30;61.80;;;;;;5035993;28;20036;-36
2021/08/17 00:44:15;;;;;;;32.20;22.65;;;23.30;61.80;;;;;;5035986;28;20321;-35
2021/08/17 00:46:41;;;;;;;27.80;21.73;;;23.30;61.70;;;;;;5035894;28;20033;-35
2021/08/17 00:49:07;;;;;;;32.15;24.30;;;23.30;61.60;;;;;;5035465;28;20033;-35
2021/08/17 00:51:32;;;;;;;29.80;21.98;;;23.20;61.60;;;;;;5036010;28;20029;-35
2021/08/17 00:53:58;;;;;;;28.98;21.98;;;23.20;61.50;;;;;;5035463;28;20481;-35
2021/08/17 00:56:24;;;;;;;26.55;19.05;;;23.20;61.40;;;;;;5035612;28;20083;-35
2021/08/17 00:58:49;;;;;;;30.55;21.17;;;23.20;61.40;;;;;;5035543;28;20100;-35
2021/08/17 01:01:15;;;;;;;29.92;19.77;;;23.20;61.30;;;;;;5036121;28;20032;-35
2021/08/17 01:03:41;;;;;;;28.15;20.33;;;23.10;61.20;;;;;;5035407;28;20449;-36
2021/08/17 01:06:06;;;;;;;26.58;20.35;;;23.20;61.20;;;;;;5036173;28;20056;-35
2021/08/17 01:08:34;;;;;;;30.42;21.58;;;23.10;61.20;;;;;;5035253;28;20034;-35
2021/08/17 01:10:59;;;;;;;27.27;19.13;;;23.10;61.00;;;;;;5036025;28;20021;-35
2021/08/17 01:13:27;;;;;;;28.23;20.13;;;23.10;60.90;;;;;;5035432;28;20473;-35
2021/08/17 01:15:54;;;;;;;28.98;19.40;;;23.10;60.90;;;;;;5035381;28;20180;-35
2021/08/17 01:18:20;;;;;;;26.60;18.80;;;23.10;60.80;;;;;;5035552;28;20039;-35
2021/08/17 01:20:51;;;;;;;27.90;20.52;;;23.10;60.70;;;;;;5035747;28;20317;-36
2021/08/17 01:23:18;;;;;;;24.88;17.80;;;23.10;60.70;;;;;;5034104;28;20033;-35
2021/08/17 01:25:44;;;;;;;28.52;17.45;;;23.10;60.70;;;;;;5035365;28;20025;-36
2021/08/17 01:28:10;;;;;;;28.13;18.52;;;23.10;60.70;;;;;;5034961;28;20418;-35
2021/08/17 01:30:36;;;;;;;27.80;19.27;;;23.10;60.60;;;;;;5035561;28;20430;-35
2021/08/17 01:33:01;;;;;;;23.17;16.95;;;23.10;60.70;;;;;;5035273;28;20033;-35
2021/08/17 01:35:28;;;;;;;26.48;19.25;;;23.10;60.70;;;;;;5035509;28;20433;-35
2021/08/17 01:37:54;;;;;;;24.83;18.98;;;23.00;60.80;;;;;;5035104;28;20040;-36
2021/08/17 01:40:19;;;;;;;27.15;18.77;;;23.00;60.90;;;;;;5039090;28;20029;-35
2021/08/17 01:42:48;;;;;;;27.65;18.48;;;23.00;60.90;;;;;;5038990;28;20073;-35
2021/08/17 01:45:15;;;;;;;26.20;18.70;;;23.00;60.90;;;;;;5038580;28;20080;-35
2021/08/17 01:47:40;;;;;;;26.02;19.73;;;23.00;60.90;;;;;;5038707;28;20120;-35
2021/08/17 01:50:07;;;;;;;21.27;16.60;;;23.00;60.80;;;;;;5038914;28;20152;-35
2021/08/17 01:52:33;;;;;;;20.65;18.40;;;23.00;60.70;;;;;;5038597;28;20036;-35
2021/08/17 01:54:59;;;;;;;24.52;18.20;;;22.90;60.70;;;;;;5038963;28;20100;-35
2021/08/17 01:57:24;;;;;;;23.92;19.20;;;22.90;60.70;;;;;;5038767;28;20068;-35
2021/08/17 01:59:53;;;;;;;23.13;18.42;;;22.90;60.70;;;;;;5038530;28;20052;-35
2021/08/17 02:02:19;;;;;;;21.75;16.33;;;22.90;60.80;;;;;;5038685;28;20061;-36
2021/08/17 02:04:44;;;;;;;22.80;17.88;;;22.80;60.70;;;;;;5038666;28;20120;-35
2021/08/17 02:07:10;;;;;;;21.75;16.35;;;22.80;60.70;;;;;;5038280;28;20061;-35
2021/08/17 02:09:35;;;;;;;18.92;15.27;;;22.80;60.90;;;;;;5038521;28;20088;-35
2021/08/17 02:12:01;;;;;;;25.60;16.85;;;22.80;60.90;;;;;;5038621;28;20310;-35
2021/08/17 02:14:27;;;;;;;26.63;21.05;;;22.80;61.00;;;;;;5038228;28;20369;-35
2021/08/17 02:16:54;;;;;;;24.85;18.58;;;22.70;61.70;;;;;;5038049;28;20460;-35
2021/08/17 02:19:19;;;;;;;20.92;15.32;;;22.70;61.10;;;;;;5038077;28;20037;-36
2021/08/17 02:21:45;;;;;;;18.83;15.73;;;22.70;61.10;;;;;;5038044;28;20039;-35
2021/08/17 02:24:11;;;;;;;24.17;19.02;;;22.70;61.30;;;;;;5038424;28;20278;-36
2021/08/17 02:26:36;;;;;;;26.45;19.25;;;22.70;61.30;;;;;;5037932;28;20037;-35
2021/08/17 02:29:02;;;;;;;26.60;20.40;;;22.60;61.30;;;;;;5038303;28;20048;-36
2021/08/17 02:31:28;;;;;;;27.20;18.08;;;22.60;61.50;;;;;;5037923;28;20033;-36
2021/08/17 02:33:53;;;;;;;22.02;15.90;;;22.50;61.60;;;;;;5037730;28;20017;-35
2021/08/17 02:36:19;;;;;;;26.15;17.15;;;22.50;61.60;;;;;;5038373;28;20033;-35
2021/08/17 02:38:45;;;;;;;26.63;19.33;;;22.50;61.80;;;;;;5037924;28;20330;-35
2021/08/17 02:41:10;;;;;;;23.70;16.08;;;22.50;61.90;;;;;;5038023;28;20479;-35
2021/08/17 02:43:36;;;;;;;23.33;19.30;;;22.40;61.90;;;;;;5037690;28;20032;-35
2021/08/17 02:46:02;;;;;;;22.17;18.15;;;22.40;62.00;;;;;;5038194;28;20445;-35
2021/08/17 02:48:27;;;;;;;24.38;18.67;;;22.40;62.10;;;;;;5037878;28;20048;-36
2021/08/17 02:50:53;;;;;;;25.40;19.60;;;22.40;62.20;;;;;;5037630;28;20048;-36
2021/08/17 02:53:19;;;;;;;23.65;18.65;;;22.30;62.30;;;;;;5037452;28;20108;-35
2021/08/17 02:55:45;;;;;;;35.40;17.60;;;22.30;62.40;;;;;;5037775;28;20029;-36
2021/08/17 02:58:10;;;;;;;25.27;19.08;;;22.30;62.40;;;;;;5037599;28;20030;-35
2021/08/17 03:00:37;;;;;;;23.92;17.40;;;22.30;62.60;;;;;;5037835;28;20114;-35
2021/08/17 03:03:03;;;;;;;21.42;16.58;;;22.20;62.50;;;;;;5037210;28;20036;-35
2021/08/17 03:05:29;;;;;;;23.00;19.65;;;22.20;62.60;;;;;;5037567;28;20030;-35
2021/08/17 03:08:03;;;;;;;19.85;15.18;;;22.20;62.60;;;;;;5037382;28;20079;-35
2021/08/17 03:10:29;;;;;;;24.38;18.30;;;22.20;62.60;;;;;;5037432;28;20453;-36
2021/08/17 03:12:55;;;;;;;21.23;15.13;;;22.20;62.60;;;;;;5037175;28;20037;-35
2021/08/17 03:15:21;;;;;;;21.88;16.73;;;22.20;62.50;;;;;;5037059;28;20038;-35
2021/08/17 03:17:47;;;;;;;19.60;14.95;;;22.20;62.50;;;;;;5037200;28;20076;-35
2021/08/17 03:20:15;;;;;;;16.65;14.00;;;22.20;62.50;;;;;;5037176;28;20042;-35
2021/08/17 03:22:41;;;;;;;25.55;17.85;;;22.20;62.50;;;;;;5036770;28;20048;-35
2021/08/17 03:25:10;;;;;;;18.83;16.17;;;22.20;62.50;;;;;;5036989;28;20124;-36
2021/08/17 03:27:36;;;;;;;20.45;18.30;;;22.20;62.40;;;;;;5036588;28;20116;-35
2021/08/17 03:30:05;;;;;;;25.13;16.60;;;22.20;62.30;;;;;;5037006;28;20049;-35
2021/08/17 03:32:31;;;;;;;24.30;17.80;;;22.30;62.30;;;;;;5036675;28;20065;-36
2021/08/17 03:34:56;;;;;;;23.05;16.70;;;22.30;62.20;;;;;;5037338;28;20068;-35
2021/08/17 03:37:22;;;;;;;18.98;16.48;;;22.30;62.20;;;;;;5036431;28;20037;-36
2021/08/17 03:39:48;;;;;;;21.50;16.08;;;22.30;62.10;;;;;;5036811;28;20043;-36
2021/08/17 03:42:13;;;;;;;19.88;15.35;;;22.30;62.00;;;;;;5036781;28;20413;-35
2021/08/17 03:44:39;;;;;;;18.13;14.68;;;22.30;62.00;;;;;;5036672;28;20041;-36
2021/08/17 03:47:05;;;;;;;20.80;16.52;;;22.30;62.00;;;;;;5036592;28;20075;-35
2021/08/17 03:49:30;;;;;;;22.50;17.45;;;22.40;62.00;;;;;;5036371;28;20044;-35
2021/08/17 03:51:56;;;;;;;22.33;17.40;;;22.40;61.90;;;;;;5036252;28;20421;-35
2021/08/17 03:54:22;;;;;;;26.35;13.48;;;22.40;61.80;;;;;;5036458;28;20026;-36
2021/08/17 03:56:47;;;;;;;23.40;15.27;;;22.50;61.80;;;;;;5036440;28;20036;-36
2021/08/17 03:59:13;;;;;;;21.30;16.15;;;22.50;61.70;;;;;;5036245;28;20033;-36
2021/08/17 04:01:39;;;;;;;19.45;13.93;;;22.50;61.60;;;;;;5035213;28;20064;-35
2021/08/17 04:04:04;;;;;;;19.25;17.25;;;22.60;61.50;;;;;;5035967;28;20029;-35
2021/08/17 04:06:30;;;;;;;22.95;18.70;;;22.60;61.30;;;;;;5035874;28;20040;-35
2021/08/17 04:08:55;;;;;;;18.73;13.88;;;22.70;61.30;;;;;;5036168;28;20444;-35
2021/08/17 04:11:21;;;;;;;19.50;15.65;;;22.70;61.70;;;;;;5036547;28;20029;-36
2021/08/17 04:13:47;;;;;;;18.85;15.27;;;22.70;61.00;;;;;;5035678;28;20033;-36
2021/08/17 04:16:12;;;;;;;22.70;14.57;;;22.80;60.90;;;;;;5035741;28;20056;-36
2021/08/17 04:18:38;;;;;;;20.70;15.35;;;22.90;60.90;;;;;;5035612;28;20061;-35
2021/08/17 04:21:03;;;;;;;30.83;15.13;;;22.90;60.80;;;;;;5035929;28;20025;-36
2021/08/17 04:23:29;;;;;;;21.80;15.70;;;22.90;60.70;;;;;;5035630;28;20029;-35
2021/08/17 04:25:55;;;;;;;19.27;14.75;;;23.00;60.50;;;;;;5035942;28;20087;-36
2021/08/17 04:28:21;;;;;;;19.95;13.40;;;23.00;60.30;;;;;;5035462;28;20164;-35
2021/08/17 04:30:46;;;;;;;20.88;14.90;;;23.00;60.40;;;;;;5036117;28;20040;-36
2021/08/17 04:33:12;;;;;;;19.02;15.48;;;23.10;60.40;;;;;;5034490;28;20026;-36
2021/08/17 04:35:38;;;;;;;20.33;14.88;;;23.10;60.30;;;;;;5035778;28;20112;-36
2021/08/17 04:38:03;;;;;;;17.98;13.65;;;23.10;60.30;;;;;;5035648;28;20418;-35
2021/08/17 04:40:29;;;;;;;19.10;14.80;;;23.20;60.40;;;;;;5035960;28;20409;-36
2021/08/17 04:42:55;;;;;;;19.40;14.23;;;23.30;60.30;;;;;;5035490;28;20065;-36
2021/08/17 04:45:20;;;;;;;19.48;13.40;;;23.30;60.30;;;;;;5035901;28;20112;-36
2021/08/17 04:47:51;;;;;;;31.92;16.42;;;23.30;60.20;;;;;;5035313;28;20033;-36
2021/08/17 04:50:19;;;;;;;20.95;15.82;;;23.40;59.90;;;;;;5035259;28;20075;-36
2021/08/17 04:52:45;;;;;;;26.88;17.55;;;23.40;60.00;;;;;;5035120;28;20041;-36
2021/08/17 04:55:11;;;;;;;25.10;17.08;;;23.50;60.10;;;;;;5035525;28;20021;-36
2021/08/17 04:57:49;;;;;;;29.92;15.68;;;23.50;60.10;;;;;;5035460;28;20073;-36
2021/08/17 05:00:16;;;;;;;29.50;16.73;;;23.60;60.00;;;;;;5035744;28;20026;-36
2021/08/17 05:02:41;;;;;;;33.70;16.48;;;23.60;60.10;;;;;;5035190;28;20418;-37
2021/08/17 05:05:07;;;;;;;24.67;14.82;;;23.60;60.10;;;;;;5035678;28;20038;-36
2021/08/17 05:07:37;;;;;;;19.92;14.50;;;23.70;60.30;;;;;;5035075;28;20325;-36
2021/08/17 05:10:08;;;;;;;23.33;16.02;;;23.80;60.10;;;;;;5035382;28;20036;-36
2021/08/17 05:12:35;;;;;;;23.55;15.20;;;23.80;60.00;;;;;;5036361;28;20032;-36
2021/08/17 05:15:01;;;;;;;22.92;14.50;;;23.90;60.00;;;;;;5039223;28;20032;-36
2021/08/17 05:17:27;;;;;;;23.65;15.57;;;23.90;60.10;;;;;;5038962;28;20044;-36
2021/08/17 05:19:52;;;;;;;31.77;17.65;;;24.00;60.00;;;;;;5038825;28;20382;-36
2021/08/17 05:22:18;;;;;;;27.40;17.52;;;24.10;59.90;;;;;;5038805;28;20033;-36
2021/08/17 05:24:44;;;;;;;20.02;16.35;;;24.10;59.90;;;;;;5038996;28;20041;-36
2021/08/17 05:27:09;;;;;;;24.42;16.55;;;24.20;59.80;;;;;;5038492;28;20151;-36
2021/08/17 05:29:36;;;;;;;24.30;14.73;;;24.30;59.90;;;;;;5038721;28;20083;-36
2021/08/17 05:32:03;;;;;;;23.33;16.58;;;24.40;59.80;;;;;;5038853;28;20029;-36
2021/08/17 05:34:29;;;;;;;19.17;14.70;;;24.50;59.20;;;;;;5038629;28;20034;-36
2021/08/17 05:36:54;;;;;;;17.42;12.27;;;24.60;59.20;;;;;;5038643;28;20116;-36
2021/08/17 05:39:20;;;;;;;17.88;11.52;;;24.60;58.20;;;;;;5038786;28;20053;-36
2021/08/17 05:41:46;;;;;;;18.83;14.52;;;24.80;57.70;;;;;;5038582;28;20037;-36
2021/08/17 05:44:12;;;;;;;17.50;12.45;;;24.90;57.50;;;;;;5038515;28;20034;-36
2021/08/17 05:46:37;;;;;;;18.58;11.65;;;25.00;57.30;;;;;;5038880;28;20063;-36
2021/08/17 05:49:03;;;;;;;20.80;13.57;;;25.00;57.30;;;;;;5036892;28;20018;-36
2021/08/17 05:51:28;;;;;;;19.77;12.40;;;25.20;56.70;;;;;;5037964;28;20029;-36
2021/08/17 05:53:54;;;;;;;19.08;12.05;;;25.20;55.80;;;;;;5038126;28;20017;-36
2021/08/17 05:56:20;;;;;;;18.77;12.45;;;25.40;55.40;;;;;;5038810;28;20030;-36
2021/08/17 05:58:45;;;;;;;25.15;11.40;;;25.40;54.60;;;;;;5037868;28;20342;-36
2021/08/17 06:01:11;;;;;;;21.65;10.57;;;25.50;53.90;;;;;;5038404;28;20048;-37
2021/08/17 06:03:36;;;;;;;24.08;11.55;;;25.60;53.60;;;;;;5037823;28;20052;-36
2021/08/17 06:06:02;;;;;;;22.90;10.93;;;25.70;53.10;;;;;;5038596;28;20033;-36
2021/08/17 06:08:28;;;;;;;14.88;10.23;;;25.80;52.90;;;;;;5037654;28;20022;-37
2021/08/17 06:10:54;;;;;;;23.08;10.60;;;25.90;52.30;;;;;;5038360;28;20025;-37
2021/08/17 06:13:19;;;;;;;25.60;11.25;;;26.00;52.20;;;;;;5038166;28;20041;-36
2021/08/17 06:15:45;;;;;;;16.55;10.18;;;26.10;52.50;;;;;;5037677;28;20060;-37
2021/08/17 06:18:11;;;;;;;11.23;9.85;;;26.20;52.00;;;;;;5037976;28;20298;-36
2021/08/17 06:20:37;;;;;;;12.43;10.02;;;26.30;51.40;;;;;;5038240;28;20041;-36
2021/08/17 06:23:03;;;;;;;18.17;10.75;;;26.40;50.80;;;;;;5038041;28;20030;-36
2021/08/17 06:25:29;;;;;;;13.65;9.82;;;26.50;50.70;;;;;;5037072;28;20037;-37
2021/08/17 06:27:56;;;;;;;13.20;10.63;;;26.60;50.20;;;;;;5037557;28;20382;-37
2021/08/17 06:30:22;;;;;;;13.65;10.10;;;26.70;50.10;;;;;;5037347;28;20314;-37
2021/08/17 06:32:48;;;;;;;18.55;9.65;;;26.80;49.90;;;;;;5037420;28;20030;-37
2021/08/17 06:35:14;;;;;;;18.75;9.73;;;26.90;49.50;;;;;;5037796;28;20052;-37
2021/08/17 06:37:40;;;;;;;15.10;9.30;;;27.00;48.70;;;;;;5037214;28;20035;-37
2021/08/17 06:40:07;;;;;;;12.38;8.25;;;27.10;49.20;;;;;;5037633;28;20112;-37
2021/08/17 06:42:33;;;;;;;12.88;9.70;;;27.20;47.80;;;;;;5037524;28;20060;-38
2021/08/17 06:44:59;;;;;;;17.70;9.13;;;27.30;46.10;;;;;;5037627;28;20033;-39
2021/08/17 06:47:24;;;;;;;18.98;9.00;;;27.40;46.60;;;;;;5037256;28;20029;-37
2021/08/17 06:49:50;;;;;;;14.85;8.13;;;27.50;46.60;;;;;;5037346;28;20288;-37
2021/08/17 06:52:15;;;;;;;16.60;8.55;;;27.60;46.00;;;;;;5036870;28;20053;-37
2021/08/17 06:54:41;;;;;;;16.48;7.80;;;27.70;45.50;;;;;;5037461;28;20057;-37
2021/08/17 06:57:07;;;;;;;14.13;9.48;;;27.70;45.10;;;;;;5036698;28;20433;-37
2021/08/17 06:59:32;;;;;;;14.68;7.63;;;27.80;45.50;;;;;;5037331;28;20086;-37
2021/08/17 07:01:58;;;;;;;15.07;10.57;;;27.90;44.50;;;;;;5037190;28;20353;-37
2021/08/17 07:04:24;;;;;;;13.88;7.25;;;28.00;44.60;;;;;;5036867;28;20397;-38
2021/08/17 07:06:49;;;;;;;21.42;9.23;;;28.10;43.60;;;;;;5037152;28;20034;-37
2021/08/17 07:09:15;;;;;;;13.65;8.80;;;28.10;43.40;;;;;;5036739;28;20083;-37
2021/08/17 07:11:41;;;;;;;13.80;8.52;;;28.20;43.10;;;;;;5036845;28;20033;-37
2021/08/17 07:14:08;;;;;;;14.38;8.43;;;28.30;43.40;;;;;;5036920;28;20059;-37
2021/08/17 07:16:35;;;;;;;13.55;8.07;;;28.40;43.20;;;;;;5036681;28;20045;-38
2021/08/17 07:19:01;;;;;;;18.92;7.70;;;28.40;43.60;;;;;;5036701;28;20083;-38
2021/08/17 07:21:27;;;;;;;11.25;8.77;;;28.50;43.40;;;;;;5046535;28;20413;-38
2021/08/17 07:23:52;;;;;;;15.95;9.93;;;28.60;43.10;;;;;;5056494;28;20397;-38
2021/08/17 07:26:18;;;;;;;10.55;8.10;;;28.70;42.40;;;;;;5054114;28;20033;-37
2021/08/17 07:28:44;;;;;;;16.75;8.70;;;28.70;41.80;;;;;;5054721;28;20083;-37
2021/08/17 07:31:10;;;;;;;9.85;6.47;;;28.80;41.40;;;;;;5056308;28;20036;-37
2021/08/17 07:33:35;;;;;;;12.82;7.93;;;28.90;42.00;;;;;;5055778;28;20029;-37
2021/08/17 07:36:01;;;;;;;14.38;7.85;;;28.90;41.80;;;;;;5054844;28;20064;-37
2021/08/17 07:38:27;;;;;;;12.32;7.45;;;29.00;41.60;;;;;;5055567;28;20041;-37
2021/08/17 07:40:52;;;;;;;13.52;7.28;;;29.10;41.30;;;;;;5055897;28;20073;-37
2021/08/17 07:43:18;;;;;;;13.55;9.18;;;29.20;41.70;;;;;;5055755;28;20037;-37
2021/08/17 07:45:44;;;;;;;13.98;8.02;;;29.20;41.80;;;;;;5056028;28;20029;-37
2021/08/17 07:48:09;;;;;;;13.02;7.45;;;29.30;41.30;;;;;;5055217;28;20029;-38
2021/08/17 07:50:38;;;;;;;15.98;9.48;;;29.40;41.40;;;;;;5055145;28;20021;-38
2021/08/17 07:53:08;;;;;;;13.40;7.32;;;29.50;41.50;;;;;;5055293;28;20095;-38
2021/08/17 07:55:34;;;;;;;13.75;6.95;;;29.60;41.30;;;;;;5055640;28;20029;-38
2021/08/17 07:58:00;;;;;;;14.32;8.10;;;29.60;40.50;;;;;;5055208;28;20055;-38
2021/08/17 08:00:25;;;;;;;10.23;7.65;;;29.70;39.80;;;;;;5055913;28;20025;-37
2021/08/17 08:02:51;;;;;;;11.98;7.00;;;29.70;39.80;;;;;;5055690;28;20044;-37
2021/08/17 08:05:17;;;;;;;13.95;8.35;;;29.80;40.00;;;;;;5056003;28;20035;-38
2021/08/17 08:07:42;;;;;;;18.25;9.52;;;29.90;40.00;;;;;;5055329;28;20033;-37
2021/08/17 08:10:09;;;;;;;30.15;8.40;;;29.90;39.60;;;;;;5055743;28;20036;-37
2021/08/17 08:12:35;;;;;;;14.57;7.65;;;30.00;40.00;;;;;;5055611;28;20298;-38
2021/08/17 08:15:01;;;;;;;14.65;6.70;;;30.10;39.20;;;;;;5055719;28;20032;-37
2021/08/17 08:17:27;;;;;;;11.82;7.97;;;30.10;38.70;;;;;;5052501;28;20076;-38
2021/08/17 08:19:52;;;;;;;13.52;8.80;;;30.20;38.10;;;;;;5055543;28;20025;-38
2021/08/17 08:22:18;;;;;;;9.68;7.05;;;30.30;37.50;;;;;;5054652;28;20028;-37
2021/08/17 08:24:44;;;;;;;12.43;7.18;;;30.30;37.20;;;;;;5055255;28;20032;-37
2021/08/17 08:27:11;;;;;;;10.77;6.90;;;30.40;37.10;;;;;;5054820;28;20025;-38
2021/08/17 08:29:37;;;;;;;11.75;7.40;;;30.50;36.70;;;;;;5055220;28;20153;-37
2021/08/17 08:32:03;;;;;;;12.00;7.25;;;30.60;37.30;;;;;;5054741;28;20492;-38
2021/08/17 08:34:29;;;;;;;9.85;7.07;;;30.60;36.70;;;;;;5055398;28;20032;-38
2021/08/17 08:36:55;;;;;;;7.32;6.45;;;30.70;36.50;;;;;;5054709;28;20055;-38
2021/08/17 08:39:20;;;;;;;9.68;7.13;;;30.70;36.70;;;;;;5054780;28;20029;-38
2021/08/17 08:41:47;;;;;;;14.35;8.05;;;30.80;36.90;;;;;;5054889;28;20264;-38
2021/08/17 08:44:13;;;;;;;19.70;9.27;;;30.80;37.00;;;;;;5055174;28;20104;-37
2021/08/17 08:46:40;;;;;;;11.20;7.60;;;30.90;37.30;;;;;;5054325;28;20037;-38
2021/08/17 08:49:06;;;;;;;20.00;8.43;;;30.90;37.30;;;;;;5058507;28;20025;-37
2021/08/17 08:51:33;;;;;;;14.68;8.13;;;31.00;37.20;;;;;;5058644;28;20040;-37
2021/08/17 08:54:01;;;;;;;16.15;8.02;;;31.00;37.30;;;;;;5059132;28;20032;-37
2021/08/17 08:56:30;;;;;;;13.40;7.82;;;31.10;37.30;;;;;;5058807;28;20036;-38
2021/08/17 08:58:56;;;;;;;13.03;7.63;;;31.20;37.20;;;;;;5058243;28;20405;-38
2021/08/17 09:01:24;;;;;;;10.77;7.75;;;31.20;36.90;;;;;;5050673;28;20033;-37
2021/08/17 09:03:52;;;;;;;12.15;10.05;;;31.20;37.00;;;;;;5039186;28;20025;-38
2021/08/17 09:06:24;;;;;;;14.35;9.23;;;31.30;36.60;;;;;;5039205;28;20059;-37
2021/08/17 09:09:11;;;;;;;12.27;8.90;;;31.30;36.00;;;;;;5039002;28;20381;-37
2021/08/17 09:11:40;;;;;;;13.80;9.52;;;31.40;36.50;;;;;;5039118;28;20042;-37
2021/08/17 09:14:14;;;;;;;14.50;8.53;;;31.40;36.60;;;;;;5038654;28;20049;-37
2021/08/17 09:16:40;;;;;;;17.00;10.30;;;31.50;36.50;;;;;;5038187;28;20112;-37
2021/08/17 09:19:37;;;;;;;10.75;7.78;;;31.50;36.60;;;;;;5038773;28;20389;-37
2021/08/17 09:22:15;;;;;;;15.00;8.05;;;31.60;37.00;;;;;;5037674;28;20338;-38
2021/08/17 09:24:44;;;;;;;12.55;7.95;;;31.60;36.50;;;;;;5038688;28;20108;-38
2021/08/17 09:27:18;;;;;;;10.95;7.63;;;31.60;36.50;;;;;;5038382;28;20325;-37
2021/08/17 09:29:46;;;;;;;10.02;7.82;;;31.70;36.80;;;;;;5038576;28;20029;-37
2021/08/17 09:32:21;;;;;;;13.20;9.23;;;31.70;37.20;;;;;;5038363;28;20044;-38
2021/08/17 09:34:53;;;;;;;10.27;7.32;;;31.80;37.20;;;;;;5038877;28;20026;-37
2021/08/17 09:37:20;;;;;;;14.95;9.35;;;31.80;37.30;;;;;;5038041;28;20033;-37
2021/08/17 09:39:48;;;;;;;11.57;8.18;;;31.80;37.70;;;;;;5038476;28;20143;-38
2021/08/17 09:42:32;;;;;;;11.82;8.27;;;31.90;37.90;;;;;;5038530;28;20033;-37
2021/08/17 09:45:15;;;;;;;15.27;10.80;;;32.00;38.10;;;;;;5038801;28;20061;-37
2021/08/17 09:47:44;;;;;;;15.07;9.27;;;32.00;37.70;;;;;;5038447;28;20064;-38
2021/08/17 09:50:19;;;;;;;12.57;9.00;;;32.00;37.60;;;;;;5038392;28;20037;-38
2021/08/17 09:52:46;;;;;;;12.48;8.90;;;32.10;37.80;;;;;;5038529;28;20033;-37
2021/08/17 09:55:17;;;;;;;10.45;7.68;;;32.20;37.90;;;;;;5043676;28;20029;-37
2021/08/17 09:57:43;;;;;;;9.05;7.93;;;32.20;38.10;;;;;;5057782;28;20021;-37
2021/08/17 10:00:14;;;;;;;11.60;10.25;;;32.20;37.90;;;;;;5057113;28;20091;-38
2021/08/17 10:02:43;;;;;;;14.02;9.05;;;32.30;37.90;;;;;;5056982;28;20032;-38
2021/08/17 10:05:11;;;;;;;12.60;9.05;;;32.40;37.50;;;;;;5051730;28;20029;-37
2021/08/17 10:07:38;;;;;;;11.95;8.30;;;32.40;37.20;;;;;;5038143;28;20379;-37
2021/08/17 10:10:04;;;;;;;14.80;11.18;;;32.50;37.30;;;;;;5037773;28;20048;-37
2021/08/17 10:12:31;;;;;;;16.00;8.10;;;32.60;37.50;;;;;;5037607;28;20032;-37
2021/08/17 10:14:57;;;;;;;14.20;9.98;;;32.70;38.50;;;;;;5036309;28;20041;-38
2021/08/17 10:17:23;;;;;;;12.30;11.00;;;32.70;39.50;;;;;;5037627;28;20101;-38
2021/08/17 10:19:49;;;;;;;15.05;10.20;;;32.80;44.40;;;;;;5037707;28;20180;-37
2021/08/17 10:22:15;;;;;;;13.48;8.55;;;32.80;45.50;;;;;;5037561;28;20033;-38
2021/08/17 10:24:43;;;;;;;14.52;12.10;;;32.70;44.00;;;;;;5037393;28;20322;-38
2021/08/17 10:27:26;;;;;;;17.20;12.80;;;32.70;45.80;;;;;;5037386;28;20033;-38
2021/08/17 10:30:07;;;;;;;15.93;12.35;;;32.60;47.70;;;;;;5051857;28;20032;-38
2021/08/17 10:32:58;;;;;;;17.50;11.35;;;32.60;47.70;;;;;;5056975;28;20028;-38
2021/08/17 10:35:26;;;;;;;16.63;10.63;;;32.50;47.10;;;;;;5057243;28;20036;-38
2021/08/17 10:38:12;;;;;;;14.13;10.75;;;32.40;48.80;;;;;;5056735;28;20029;-38
2021/08/17 10:40:50;;;;;;;13.05;10.48;;;32.30;47.80;;;;;;5056895;28;20116;-38
2021/08/17 10:43:51;;;;;;;13.52;9.57;;;32.20;45.40;;;;;;5056489;28;20472;-38
2021/08/17 10:46:16;;;;;;;14.75;10.27;;;32.20;48.70;;;;;;5056874;28;20035;-37
2021/08/17 10:48:51;;;;;;;11.75;10.25;;;32.20;48.10;;;;;;5056662;28;20029;-38
2021/08/17 10:51:22;;;;;;;13.82;10.27;;;32.20;48.60;;;;;;5056969;28;20086;-38
2021/08/17 10:54:14;;;;;;;15.05;10.18;;;32.20;49.50;;;;;;5056170;28;20032;-38
2021/08/17 10:56:40;;;;;;;11.73;8.70;;;32.20;49.00;;;;;;5056580;28;20033;-38
2021/08/17 10:59:06;;;;;;;12.98;9.68;;;32.20;45.50;;;;;;5056158;28;20029;-38
2021/08/17 11:01:35;;;;;;;11.30;9.68;;;32.30;43.50;;;;;;5056900;28;20029;-38
2021/08/17 11:04:09;;;;;;;12.48;9.25;;;32.40;46.00;;;;;;5056273;28;20056;-38
2021/08/17 11:06:40;;;;;;;12.05;8.73;;;32.40;45.00;;;;;;5056596;28;20037;-38
2021/08/17 11:09:18;;;;;;;10.45;9.45;;;32.40;45.20;;;;;;5056398;28;20033;-37
2021/08/17 11:12:08;;;;;;;9.48;8.32;;;32.50;46.90;;;;;;5056273;28;20037;-38
2021/08/17 11:14:39;;;;;;;10.25;9.25;;;32.50;46.70;;;;;;5055620;28;20394;-38
2021/08/17 11:17:11;;;;;;;9.85;8.85;;;32.50;46.70;;;;;;5056189;28;20056;-38
2021/08/17 11:19:39;;;;;;;10.38;9.15;;;32.60;47.50;;;;;;5055940;28;20044;-38
2021/08/17 11:22:07;;;;;;;12.13;9.25;;;32.60;46.90;;;;;;5056300;28;20033;-38
2021/08/17 11:24:34;;;;;;;12.45;10.93;;;32.60;46.60;;;;;;5056012;28;20456;-37
2021/08/17 11:27:02;;;;;;;11.65;8.85;;;32.60;46.90;;;;;;5055979;28;20037;-38
2021/08/17 11:29:48;;;;;;;11.85;9.23;;;32.60;46.30;;;;;;5055754;28;20074;-38
2021/08/17 11:32:13;;;;;;;12.35;8.98;;;32.50;41.40;;;;;;5055569;28;20087;-38
2021/08/17 11:34:41;;;;;;;16.10;8.25;;;32.60;40.80;;;;;;5055515;28;20041;-38
2021/08/17 11:37:12;;;;;;;11.98;7.90;;;32.70;38.80;;;;;;5056058;28;20037;-38
2021/08/17 11:39:52;;;;;;;10.10;8.00;;;32.80;39.10;;;;;;5055978;28;20041;-37
2021/08/17 11:42:30;;;;;;;10.52;8.18;;;33.00;38.60;;;;;;5055692;28;20139;-38
2021/08/17 11:45:02;;;;;;;9.50;7.63;;;33.20;37.40;;;;;;5056121;28;20335;-38
2021/08/17 11:47:28;;;;;;;9.07;7.40;;;33.40;39.00;;;;;;5055970;28;20394;-38
2021/08/17 11:49:56;;;;;;;10.23;7.45;;;33.70;38.10;;;;;;5055177;28;20428;-38
2021/08/17 11:52:25;;;;;;;14.98;9.80;;;33.80;37.30;;;;;;5055632;28;20034;-39
2021/08/17 11:55:04;;;;;;;9.20;8.27;;;34.00;36.60;;;;;;5055543;28;20025;-38
2021/08/17 11:57:37;;;;;;;;;;;34.20;35.50;;;;;;5055996;28;20159;-38
2021/08/17 12:00:10;;;;;;;9.98;7.45;;;34.30;36.60;;;;;;5055874;28;19954;-39
2021/08/17 12:02:37;;;;;;;11.90;7.90;;;34.50;36.60;;;;;;5056129;28;20619;-37
2021/08/17 12:05:06;;;;;;;12.13;7.78;;;34.60;35.20;;;;;;5054533;28;20044;-38
2021/08/17 12:07:33;;;;;;;10.48;7.65;;;34.80;34.40;;;;;;5055891;28;20036;-38
2021/08/17 12:10:21;;;;;;;13.48;7.53;;;34.90;34.70;;;;;;5055432;28;20025;-38
2021/08/17 12:13:08;;;;;;;15.18;8.57;;;35.10;34.30;;;;;;5055761;28;20052;-38
2021/08/17 12:15:44;;;;;;;11.68;7.30;;;35.20;34.30;;;;;;5055524;28;20052;-37
2021/08/17 12:18:33;;;;;;;10.45;7.10;;;35.30;34.40;;;;;;5055276;28;20328;-38
2021/08/17 12:21:05;;;;;;;11.25;6.55;;;35.40;34.30;;;;;;5055984;28;20036;-38
2021/08/17 12:23:37;;;;;;;14.25;6.80;;;35.60;34.00;;;;;;5054344;28;20036;-38
2021/08/17 12:26:37;;;;;;;12.60;7.60;;;35.80;34.00;;;;;;5055764;28;20028;-38
2021/08/17 12:29:11;;;;;;;13.05;8.05;;;36.00;33.80;;;;;;5052414;28;20473;-38
2021/08/17 12:31:38;;;;;;;9.32;6.57;;;36.10;32.70;;;;;;5054811;28;20049;-38
2021/08/17 12:34:07;;;;;;;10.88;7.03;;;36.30;32.90;;;;;;5055271;28;20070;-37
2021/08/17 12:36:45;;;;;;;;;;;36.40;33.10;;;;;;5055858;28;20021;-38